Arkdale, Wisconsin
Current Conditions -  °F | °C
As of 10:58 AM on Tuesday 21 Oct 2014 (Local Time) from KVOK Reporting Station
Broken Clouds Broken Clouds  
Wind Chill: 44°   Ceiling: 2400
Heat Index: 46°   Visibility: 10mi
Dew Point: 39°   Wind: 5mph
Humidity: 76%   Direction: 100°E
Pressure: 30.24"   Gusts: NA
Location:  44.03°N, 89.89°W
Report Text: KVOK 211558Z 10004KT 10SM BKN024 08/04 A3024 RMK AO2A SLP249
Loading
Personal Weather Stations






























Interactive Weather Map
Tropical Storm Tracking
New forecast layout! Learn more

10-Day Weather Forecast

Advertisements
Track Severe Weather on mobile